createdAt,value
2023-01-19T00:02:01.060Z,37.9
2023-01-19T00:07:01.812Z,35.7
2023-01-19T00:12:01.452Z,33.8
2023-01-19T00:17:02.015Z,34.1
2023-01-19T00:22:01.067Z,33.2
2023-01-19T00:27:01.768Z,33.5
2023-01-19T00:32:01.077Z,35.4
2023-01-19T00:37:01.095Z,32.0
2023-01-19T00:42:01.549Z,32.5
2023-01-19T00:47:01.065Z,32.9
2023-01-19T00:52:01.479Z,32.6
2023-01-19T00:57:01.089Z,32.8
2023-01-19T01:02:01.238Z,35.9
2023-01-19T01:07:02.026Z,35.4
2023-01-19T01:12:01.071Z,34.0
2023-01-19T01:17:01.086Z,33.7
2023-01-19T01:22:01.058Z,32.5
2023-01-19T01:27:01.135Z,32.1
2023-01-19T01:32:01.058Z,32.2
2023-01-19T01:37:01.796Z,33.3
2023-01-19T01:42:01.062Z,32.0
2023-01-19T01:47:01.063Z,31.2
2023-01-19T01:52:01.671Z,31.6
2023-01-19T01:57:01.087Z,28.8
2023-01-19T02:02:01.248Z,27.7
2023-01-19T02:07:01.070Z,28.4
2023-01-19T02:13:03.782Z,27.9
2023-01-19T02:18:02.096Z,27.0
2023-01-19T02:23:06.625Z,27.4
2023-01-19T02:28:01.066Z,26.1
2023-01-19T02:33:01.604Z,24.3
2023-01-19T02:38:02.748Z,23.4
2023-01-19T02:43:01.566Z,23.6
2023-01-19T02:48:01.067Z,24.2
2023-01-19T02:53:01.437Z,24.1
2023-01-19T02:58:09.238Z,25.2
2023-01-19T03:03:01.458Z,27.4
2023-01-19T03:08:06.171Z,27.0
2023-01-19T03:13:01.383Z,24.8
2023-01-19T03:18:01.084Z,23.6
2023-01-19T03:23:01.374Z,20.4
2023-01-19T03:28:01.161Z,19.2
2023-01-19T03:33:01.468Z,18.6
2023-01-19T03:38:04.220Z,19.3
2023-01-19T03:43:01.554Z,20.6
2023-01-19T03:48:01.078Z,22.0
2023-01-19T03:53:01.341Z,21.0
2023-01-19T03:58:01.077Z,20.5
2023-01-19T04:03:01.495Z,21.0
2023-01-19T04:08:01.121Z,19.0
2023-01-19T04:13:01.550Z,19.9
2023-01-19T04:18:01.510Z,19.8
2023-01-19T04:23:01.614Z,18.2
2023-01-19T04:28:01.529Z,18.4
2023-01-19T04:33:01.404Z,17.8
2023-01-19T04:38:01.113Z,15.7
2023-01-19T04:43:01.461Z,14.7
2023-01-19T04:48:01.095Z,15.4
2023-01-19T04:53:01.564Z,13.5
2023-01-19T04:58:01.070Z,14.6
2023-01-19T05:03:01.580Z,14.4
2023-01-19T05:08:01.106Z,13.6
2023-01-19T05:13:01.415Z,13.3
2023-01-19T05:18:01.158Z,12.6
2023-01-19T05:23:01.436Z,11.1
2023-01-19T05:28:01.474Z,11.3
2023-01-19T05:33:01.387Z,11.6
2023-01-19T05:38:01.150Z,11.2
2023-01-19T05:48:01.152Z,12.0
2023-01-19T05:53:01.403Z,11.9
2023-01-19T05:58:01.059Z,13.0
2023-01-19T06:03:03.998Z,14.0
2023-01-19T06:08:01.063Z,17.0
2023-01-19T06:13:01.414Z,17.4
2023-01-19T06:18:01.069Z,18.1
2023-01-19T06:23:01.389Z,15.9
2023-01-19T06:28:01.072Z,15.2
2023-01-19T06:34:01.131Z,12.8
2023-01-19T06:39:01.094Z,13.5
2023-01-19T06:44:01.063Z,12.8
2023-01-19T06:49:02.173Z,14.8
2023-01-19T06:59:01.110Z,16.0
2023-01-19T07:04:01.067Z,16.3
2023-01-19T07:09:01.116Z,17.2
2023-01-19T07:14:01.072Z,16.1
2023-01-19T07:19:01.121Z,14.9
2023-01-19T07:24:01.145Z,14.6
2023-01-19T07:29:01.529Z,13.5
2023-01-19T07:34:01.066Z,14.9
2023-01-19T07:39:01.190Z,18.6
2023-01-19T07:44:01.098Z,28.1
2023-01-19T07:49:01.078Z,37.1
2023-01-19T07:54:01.662Z,43.1
2023-01-19T07:59:01.120Z,46.5
2023-01-19T08:04:01.073Z,46.8
2023-01-19T08:09:01.609Z,40.2
2023-01-19T08:14:01.145Z,32.1
2023-01-19T08:19:01.962Z,27.5
2023-01-19T08:24:01.173Z,25.2
2023-01-19T08:29:01.071Z,23.2
2023-01-19T08:34:01.102Z,24.2
2023-01-19T08:39:01.096Z,28.5
2023-01-19T08:44:01.079Z,30.1
2023-01-19T08:50:02.290Z,33.1
2023-01-19T08:55:01.108Z,37.8
2023-01-19T09:00:02.685Z,39.8
2023-01-19T09:05:01.982Z,36.8
2023-01-19T09:10:01.066Z,41.2
2023-01-19T09:15:01.841Z,41.7
2023-01-19T09:20:01.069Z,40.5
2023-01-19T09:25:01.068Z,38.4
2023-01-19T09:30:02.371Z,38.1
2023-01-19T09:35:01.184Z,32.6
2023-01-19T09:40:01.149Z,28.0
2023-01-19T09:45:04.728Z,25.2
2023-01-19T09:50:09.246Z,23.9
2023-01-19T09:55:01.070Z,21.4
2023-01-19T10:00:02.232Z,20.5
2023-01-19T10:05:03.156Z,20.0
2023-01-19T10:10:01.115Z,20.1
2023-01-19T10:15:01.074Z,20.3
2023-01-19T10:20:01.120Z,21.4
2023-01-19T10:25:03.103Z,20.2
2023-01-19T10:30:06.292Z,19.8
2023-01-19T10:35:01.083Z,19.2
2023-01-19T10:40:01.099Z,18.9
2023-01-19T10:45:02.480Z,18.3
2023-01-19T10:56:01.194Z,17.6
2023-01-19T11:01:01.133Z,16.9
2023-01-19T11:06:01.057Z,15.3
2023-01-19T11:11:01.073Z,15.5
2023-01-19T11:21:01.194Z,15.8
2023-01-19T11:26:01.108Z,15.7
2023-01-19T11:31:01.266Z,16.4
2023-01-19T11:36:14.053Z,16.0
2023-01-19T11:41:01.228Z,15.8
2023-01-19T11:46:01.232Z,15.6
2023-01-19T11:51:01.081Z,15.3
2023-01-19T11:56:01.126Z,16.4
2023-01-19T12:11:01.083Z,16.3
2023-01-19T12:16:01.145Z,17.2
2023-01-19T12:21:03.734Z,16.4
2023-01-19T12:26:01.058Z,17.2
2023-01-19T12:31:01.187Z,18.1
2023-01-19T12:36:01.189Z,18.4
2023-01-19T12:41:01.225Z,18.2
2023-01-19T12:46:01.079Z,17.8
2023-01-19T12:51:01.095Z,17.9
2023-01-19T12:56:01.354Z,17.6
2023-01-19T13:01:01.198Z,18.4
2023-01-19T13:06:03.045Z,20.0
2023-01-19T13:11:01.076Z,20.7
2023-01-19T13:16:01.181Z,19.8
2023-01-19T13:21:01.065Z,20.6
2023-01-19T13:26:01.059Z,21.2
2023-01-19T13:31:01.169Z,20.7
2023-01-19T13:36:01.255Z,20.6
2023-01-19T13:41:01.064Z,21.0
2023-01-19T13:46:01.099Z,21.2
2023-01-19T13:51:01.068Z,21.5
2023-01-19T13:56:01.152Z,20.8
2023-01-19T14:01:01.152Z,20.2
2023-01-19T14:06:01.889Z,20.5
2023-01-19T14:11:01.098Z,20.3
2023-01-19T14:16:01.186Z,19.8
2023-01-19T14:21:01.088Z,21.5
2023-01-19T14:26:01.066Z,22.9
2023-01-19T14:31:01.282Z,23.3
2023-01-19T14:36:01.114Z,24.2
2023-01-19T14:42:01.076Z,24.4
2023-01-19T14:47:01.061Z,23.3
2023-01-19T14:52:01.113Z,24.2
2023-01-19T14:57:01.174Z,27.1
2023-01-19T15:02:01.161Z,28.5
2023-01-19T15:07:01.163Z,30.2
2023-01-19T15:12:01.523Z,32.0
2023-01-19T15:17:01.072Z,31.8
2023-01-19T15:22:01.056Z,30.8
2023-01-19T15:27:01.055Z,30.7
2023-01-19T15:32:01.117Z,26.9
2023-01-19T15:37:01.058Z,24.6
2023-01-19T15:42:01.072Z,23.5
2023-01-19T15:47:01.492Z,22.0
2023-01-19T15:52:01.106Z,18.6
2023-01-19T15:57:01.072Z,19.9
2023-01-19T16:02:01.225Z,21.2
2023-01-19T16:07:01.142Z,19.8
2023-01-19T16:12:06.161Z,19.7
2023-01-19T16:17:01.444Z,21.3
2023-01-19T16:22:01.473Z,22.7
2023-01-19T16:27:01.063Z,21.8
2023-01-19T16:32:01.134Z,23.5
2023-01-19T16:37:01.082Z,22.7
2023-01-19T16:42:01.070Z,22.3
2023-01-19T16:47:01.163Z,23.2
2023-01-19T16:52:01.103Z,24.7
2023-01-19T16:57:01.174Z,25.2
2023-01-19T17:02:01.259Z,25.7
2023-01-19T17:07:01.170Z,26.4
2023-01-19T17:12:01.091Z,24.7
2023-01-19T17:17:01.149Z,24.0
2023-01-19T17:22:01.071Z,23.2
2023-01-19T17:27:01.481Z,26.8
2023-01-19T17:32:01.806Z,26.7
2023-01-19T17:37:01.057Z,27.2
2023-01-19T17:42:01.081Z,26.5
2023-01-19T17:47:01.063Z,28.6
2023-01-19T17:52:01.129Z,26.7
2023-01-19T17:57:01.128Z,27.6
2023-01-19T18:02:01.129Z,30.1
2023-01-19T18:07:01.109Z,31.0
2023-01-19T18:17:01.099Z,30.5
2023-01-19T18:22:01.321Z,31.0
2023-01-19T18:27:01.071Z,29.3
2023-01-19T18:32:01.069Z,28.7
2023-01-19T18:37:01.121Z,28.6
2023-01-19T18:42:01.069Z,29.5
2023-01-19T18:47:01.070Z,29.0
2023-01-19T18:52:01.102Z,28.6
2023-01-19T18:57:01.086Z,29.0
2023-01-19T19:02:01.129Z,32.5
2023-01-19T19:07:01.077Z,33.5
2023-01-19T19:12:01.148Z,36.0
2023-01-19T19:22:01.145Z,37.4
2023-01-19T19:27:01.098Z,33.5
2023-01-19T19:32:01.092Z,33.6
2023-01-19T19:37:01.485Z,31.8
2023-01-19T19:42:01.091Z,31.9
2023-01-19T19:47:01.060Z,33.4
2023-01-19T19:52:01.086Z,35.8
2023-01-19T19:57:01.067Z,36.2
2023-01-19T20:02:01.217Z,34.9
2023-01-19T20:07:01.081Z,37.3
2023-01-19T20:12:01.117Z,36.8
2023-01-19T20:17:01.069Z,36.4
2023-01-19T20:22:01.288Z,35.6
2023-01-19T20:27:01.067Z,38.1
2023-01-19T20:32:01.069Z,37.6
2023-01-19T20:38:01.793Z,37.8
2023-01-19T20:43:01.128Z,34.6
2023-01-19T20:48:01.068Z,35.0
2023-01-19T20:53:01.116Z,35.6
2023-01-19T20:58:01.172Z,40.8
2023-01-19T21:03:01.074Z,42.9
2023-01-19T21:08:01.083Z,46.3
2023-01-19T21:13:01.067Z,47.3
2023-01-19T21:18:01.081Z,47.8
2023-01-19T21:23:02.282Z,41.8
2023-01-19T21:28:01.058Z,38.6
2023-01-19T21:33:01.085Z,36.8
2023-01-19T21:38:01.139Z,34.2
2023-01-19T21:43:01.794Z,31.6
2023-01-19T21:48:01.068Z,32.0
2023-01-19T21:54:01.136Z,31.8
2023-01-19T21:59:01.063Z,30.2
2023-01-19T22:04:01.147Z,29.9
2023-01-19T22:09:01.115Z,30.2
2023-01-19T22:14:01.085Z,30.0
2023-01-19T22:19:01.133Z,29.6
2023-01-19T22:24:01.065Z,30.6
2023-01-19T22:29:01.171Z,32.6
2023-01-19T22:34:01.077Z,31.7
2023-01-19T22:39:01.075Z,31.6
2023-01-19T22:44:01.058Z,32.4
2023-01-19T22:49:01.096Z,33.2
2023-01-19T22:54:01.179Z,31.2
2023-01-19T22:59:01.070Z,33.6
2023-01-19T23:04:01.072Z,34.3
2023-01-19T23:09:01.090Z,33.2
2023-01-19T23:14:01.120Z,33.3
2023-01-19T23:19:01.193Z,31.8
2023-01-19T23:24:01.194Z,30.8
2023-01-19T23:29:01.082Z,30.2
2023-01-19T23:34:01.089Z,32.0
2023-01-19T23:39:03.498Z,31.8
2023-01-19T23:44:01.065Z,33.4
2023-01-19T23:49:01.085Z,34.1
2023-01-19T23:54:01.094Z,35.4
2023-01-19T23:59:01.079Z,35.2
